sensor_id;sensor_type;location;lat;lon;timestamp;pressure;altitude;pressure_sealevel;temperature;humidity
62942;BME280;49042;47.318;19.874;2024-03-06T00:00:49;100270.97;;;7.68;100.00
62942;BME280;49042;47.318;19.874;2024-03-06T00:03:51;100267.47;;;7.66;100.00
62942;BME280;49042;47.318;19.874;2024-03-06T00:06:53;100269.28;;;7.69;100.00
62942;BME280;49042;47.318;19.874;2024-03-06T00:09:57;100272.53;;;7.63;100.00
62942;BME280;49042;47.318;19.874;2024-03-06T00:12:58;100277.19;;;7.72;100.00
62942;BME280;49042;47.318;19.874;2024-03-06T00:16:00;100277.00;;;7.67;100.00
62942;BME280;49042;47.318;19.874;2024-03-06T00:19:02;100282.19;;;7.67;100.00
62942;BME280;49042;47.318;19.874;2024-03-06T00:22:04;100278.53;;;7.62;100.00
62942;BME280;49042;47.318;19.874;2024-03-06T00:25:06;100280.81;;;7.54;100.00
62942;BME280;49042;47.318;19.874;2024-03-06T00:28:08;100273.72;;;7.50;100.00
62942;BME280;49042;47.318;19.874;2024-03-06T00:31:09;100278.59;;;7.42;100.00
62942;BME280;49042;47.318;19.874;2024-03-06T00:34:11;100284.22;;;7.32;100.00
62942;BME280;49042;47.318;19.874;2024-03-06T00:37:17;100280.69;;;7.30;100.00
62942;BME280;49042;47.318;19.874;2024-03-06T00:40:19;100282.59;;;7.14;100.00
62942;BME280;49042;47.318;19.874;2024-03-06T00:43:21;100283.44;;;7.13;100.00
62942;BME280;49042;47.318;19.874;2024-03-06T00:46:23;100282.59;;;6.92;100.00
62942;BME280;49042;47.318;19.874;2024-03-06T00:49:24;100283.28;;;6.68;100.00
62942;BME280;49042;47.318;19.874;2024-03-06T00:52:27;100288.13;;;6.60;100.00
62942;BME280;49042;47.318;19.874;2024-03-06T00:55:29;100290.12;;;6.28;100.00
62942;BME280;49042;47.318;19.874;2024-03-06T00:58:30;100296.53;;;6.36;100.00
62942;BME280;49042;47.318;19.874;2024-03-06T01:01:32;100292.50;;;6.23;100.00
62942;BME280;49042;47.318;19.874;2024-03-06T01:04:34;100289.03;;;6.23;100.00
62942;BME280;49042;47.318;19.874;2024-03-06T01:07:39;100285.53;;;6.22;100.00
62942;BME280;49042;47.318;19.874;2024-03-06T01:10:41;100284.81;;;6.25;100.00
62942;BME280;49042;47.318;19.874;2024-03-06T01:13:43;100288.00;;;6.19;100.00
62942;BME280;49042;47.318;19.874;2024-03-06T01:16:45;100292.09;;;6.14;100.00
62942;BME280;49042;47.318;19.874;2024-03-06T01:19:46;100295.03;;;6.21;100.00
62942;BME280;49042;47.318;19.874;2024-03-06T01:22:48;100296.50;;;5.98;100.00
62942;BME280;49042;47.318;19.874;2024-03-06T01:25:50;100300.56;;;5.74;100.00
62942;BME280;49042;47.318;19.874;2024-03-06T01:28:52;100303.00;;;5.18;100.00
62942;BME280;49042;47.318;19.874;2024-03-06T01:31:54;100310.66;;;5.16;100.00
62942;BME280;49042;47.318;19.874;2024-03-06T01:34:56;100310.94;;;5.04;100.00
62942;BME280;49042;47.318;19.874;2024-03-06T01:37:58;100313.84;;;5.10;100.00
62942;BME280;49042;47.318;19.874;2024-03-06T01:40:59;100306.16;;;5.29;100.00
62942;BME280;49042;47.318;19.874;2024-03-06T01:44:01;100315.53;;;5.10;100.00
62942;BME280;49042;47.318;19.874;2024-03-06T01:47:05;100315.94;;;5.18;100.00
62942;BME280;49042;47.318;19.874;2024-03-06T01:50:09;100316.59;;;5.13;100.00
62942;BME280;49042;47.318;19.874;2024-03-06T01:53:12;100320.75;;;5.28;100.00
62942;BME280;49042;47.318;19.874;2024-03-06T01:56:15;100316.62;;;5.32;100.00
62942;BME280;49042;47.318;19.874;2024-03-06T01:59:21;100313.69;;;5.42;100.00
62942;BME280;49042;47.318;19.874;2024-03-06T02:02:37;100318.47;;;5.34;100.00
62942;BME280;49042;47.318;19.874;2024-03-06T02:05:38;100319.88;;;5.28;100.00
62942;BME280;49042;47.318;19.874;2024-03-06T02:08:41;100315.59;;;5.28;100.00
62942;BME280;49042;47.318;19.874;2024-03-06T02:11:44;100317.09;;;5.41;100.00
62942;BME280;49042;47.318;19.874;2024-03-06T02:14:46;100318.06;;;5.43;100.00
62942;BME280;49042;47.318;19.874;2024-03-06T02:17:48;100324.78;;;5.40;100.00
62942;BME280;49042;47.318;19.874;2024-03-06T02:20:49;100321.03;;;5.51;100.00
62942;BME280;49042;47.318;19.874;2024-03-06T02:23:52;100316.75;;;5.52;100.00
62942;BME280;49042;47.318;19.874;2024-03-06T02:26:56;100315.78;;;5.50;100.00
62942;BME280;49042;47.318;19.874;2024-03-06T02:29:57;100314.91;;;5.67;100.00
62942;BME280;49042;47.318;19.874;2024-03-06T02:32:59;100310.25;;;5.60;100.00
62942;BME280;49042;47.318;19.874;2024-03-06T02:36:01;100321.91;;;5.52;100.00
62942;BME280;49042;47.318;19.874;2024-03-06T02:39:02;100321.56;;;5.62;100.00
62942;BME280;49042;47.318;19.874;2024-03-06T02:42:10;100328.37;;;5.60;100.00
62942;BME280;49042;47.318;19.874;2024-03-06T02:45:12;100332.19;;;5.50;100.00
62942;BME280;49042;47.318;19.874;2024-03-06T02:48:13;100331.31;;;5.50;100.00
62942;BME280;49042;47.318;19.874;2024-03-06T02:51:24;100322.25;;;5.41;100.00
62942;BME280;49042;47.318;19.874;2024-03-06T02:54:26;100324.09;;;5.25;100.00
62942;BME280;49042;47.318;19.874;2024-03-06T02:57:27;100323.91;;;4.87;100.00
62942;BME280;49042;47.318;19.874;2024-03-06T03:00:32;100328.16;;;4.87;100.00
62942;BME280;49042;47.318;19.874;2024-03-06T03:03:34;100324.28;;;4.95;100.00
62942;BME280;49042;47.318;19.874;2024-03-06T03:06:36;100322.25;;;4.89;100.00
62942;BME280;49042;47.318;19.874;2024-03-06T03:09:38;100319.84;;;4.76;100.00
62942;BME280;49042;47.318;19.874;2024-03-06T03:12:40;100322.28;;;4.73;100.00
62942;BME280;49042;47.318;19.874;2024-03-06T03:15:42;100333.50;;;4.73;100.00
62942;BME280;49042;47.318;19.874;2024-03-06T03:18:44;100323.47;;;4.63;100.00
62942;BME280;49042;47.318;19.874;2024-03-06T03:21:46;100327.59;;;4.59;100.00
62942;BME280;49042;47.318;19.874;2024-03-06T03:24:48;100330.88;;;4.56;100.00
62942;BME280;49042;47.318;19.874;2024-03-06T03:27:50;100332.81;;;4.44;100.00
62942;BME280;49042;47.318;19.874;2024-03-06T03:30:52;100322.53;;;4.45;100.00
62942;BME280;49042;47.318;19.874;2024-03-06T03:33:54;100330.88;;;4.56;100.00
62942;BME280;49042;47.318;19.874;2024-03-06T03:36:55;100330.69;;;4.36;100.00
62942;BME280;49042;47.318;19.874;2024-03-06T03:39:58;100336.72;;;4.52;100.00
62942;BME280;49042;47.318;19.874;2024-03-06T03:43:00;100330.28;;;4.45;100.00
62942;BME280;49042;47.318;19.874;2024-03-06T03:46:07;100334.22;;;4.22;100.00
62942;BME280;49042;47.318;19.874;2024-03-06T03:49:11;100329.44;;;4.13;100.00
62942;BME280;49042;47.318;19.874;2024-03-06T03:52:13;100334.44;;;4.10;100.00
62942;BME280;49042;47.318;19.874;2024-03-06T03:55:15;100341.44;;;4.12;100.00
62942;BME280;49042;47.318;19.874;2024-03-06T03:58:17;100340.84;;;4.01;100.00
62942;BME280;49042;47.318;19.874;2024-03-06T04:01:19;100340.84;;;4.01;100.00
62942;BME280;49042;47.318;19.874;2024-03-06T04:04:21;100342.37;;;3.98;100.00
62942;BME280;49042;47.318;19.874;2024-03-06T04:07:23;100340.50;;;3.80;100.00
62942;BME280;49042;47.318;19.874;2024-03-06T04:10:24;100345.56;;;3.78;100.00
62942;BME280;49042;47.318;19.874;2024-03-06T04:13:26;100345.16;;;3.55;100.00
62942;BME280;49042;47.318;19.874;2024-03-06T04:16:28;100357.56;;;3.17;100.00
62942;BME280;49042;47.318;19.874;2024-03-06T04:19:34;100361.53;;;3.12;100.00
62942;BME280;49042;47.318;19.874;2024-03-06T04:22:36;100358.53;;;3.19;100.00
62942;BME280;49042;47.318;19.874;2024-03-06T04:25:38;100358.91;;;3.40;100.00
62942;BME280;49042;47.318;19.874;2024-03-06T04:28:41;100355.28;;;3.52;100.00
62942;BME280;49042;47.318;19.874;2024-03-06T04:31:43;100354.31;;;3.65;100.00
62942;BME280;49042;47.318;19.874;2024-03-06T04:34:44;100364.72;;;3.67;100.00
62942;BME280;49042;47.318;19.874;2024-03-06T04:37:48;100361.97;;;3.63;100.00
62942;BME280;49042;47.318;19.874;2024-03-06T04:40:49;100359.28;;;3.62;100.00
62942;BME280;49042;47.318;19.874;2024-03-06T04:43:51;100368.09;;;3.50;100.00
62942;BME280;49042;47.318;19.874;2024-03-06T04:46:54;100366.41;;;3.66;100.00
62942;BME280;49042;47.318;19.874;2024-03-06T04:49:56;100365.78;;;3.55;100.00
62942;BME280;49042;47.318;19.874;2024-03-06T04:52:59;100368.09;;;3.66;100.00
62942;BME280;49042;47.318;19.874;2024-03-06T04:56:01;100366.16;;;3.77;100.00
62942;BME280;49042;47.318;19.874;2024-03-06T04:59:03;100372.72;;;3.56;100.00
62942;BME280;49042;47.318;19.874;2024-03-06T05:02:05;100375.66;;;3.47;100.00
62942;BME280;49042;47.318;19.874;2024-03-06T05:05:07;100377.97;;;3.58;100.00
62942;BME280;49042;47.318;19.874;2024-03-06T05:08:27;100378.53;;;3.67;100.00
62942;BME280;49042;47.318;19.874;2024-03-06T05:11:46;100384.19;;;3.61;100.00
62942;BME280;49042;47.318;19.874;2024-03-06T05:15:05;100384.56;;;3.52;100.00
62942;BME280;49042;47.318;19.874;2024-03-06T05:18:25;100395.72;;;3.38;100.00
62942;BME280;49042;47.318;19.874;2024-03-06T05:21:44;100402.28;;;3.17;100.00
62942;BME280;49042;47.318;19.874;2024-03-06T05:25:03;100401.62;;;3.06;100.00
62942;BME280;49042;47.318;19.874;2024-03-06T05:28:22;100404.97;;;3.05;100.00
62942;BME280;49042;47.318;19.874;2024-03-06T05:31:41;100400.47;;;2.87;100.00
62942;BME280;49042;47.318;19.874;2024-03-06T05:35:01;100409.06;;;2.59;100.00
62942;BME280;49042;47.318;19.874;2024-03-06T05:38:20;100418.12;;;2.81;100.00
62942;BME280;49042;47.318;19.874;2024-03-06T05:41:41;100413.63;;;3.06;100.00
62942;BME280;49042;47.318;19.874;2024-03-06T05:45:01;100407.66;;;3.51;100.00
62942;BME280;49042;47.318;19.874;2024-03-06T05:48:23;100397.53;;;3.69;100.00
62942;BME280;49042;47.318;19.874;2024-03-06T05:51:43;100411.03;;;4.11;100.00
62942;BME280;49042;47.318;19.874;2024-03-06T05:55:03;100409.97;;;4.22;100.00
62942;BME280;49042;47.318;19.874;2024-03-06T05:58:25;100405.63;;;5.19;100.00
62942;BME280;49042;47.318;19.874;2024-03-06T06:01:26;100398.84;;;5.73;100.00
62942;BME280;49042;47.318;19.874;2024-03-06T06:04:28;100394.94;;;6.16;100.00
62942;BME280;49042;47.318;19.874;2024-03-06T06:07:33;100403.03;;;6.99;100.00
62942;BME280;49042;47.318;19.874;2024-03-06T06:10:35;100394.84;;;7.92;100.00
62942;BME280;49042;47.318;19.874;2024-03-06T06:13:37;100403.75;;;7.78;100.00
62942;BME280;49042;47.318;19.874;2024-03-06T06:16:42;100398.75;;;8.25;100.00
62942;BME280;49042;47.318;19.874;2024-03-06T06:19:44;100410.94;;;8.05;100.00
62942;BME280;49042;47.318;19.874;2024-03-06T06:22:45;100415.00;;;7.77;100.00
62942;BME280;49042;47.318;19.874;2024-03-06T06:25:47;100411.97;;;7.67;100.00
62942;BME280;49042;47.318;19.874;2024-03-06T06:28:49;100416.28;;;7.25;100.00
62942;BME280;49042;47.318;19.874;2024-03-06T06:31:51;100416.41;;;7.48;100.00
62942;BME280;49042;47.318;19.874;2024-03-06T06:34:56;100414.22;;;7.79;100.00
62942;BME280;49042;47.318;19.874;2024-03-06T06:37:57;100416.34;;;8.77;100.00
62942;BME280;49042;47.318;19.874;2024-03-06T06:41:00;100409.91;;;9.64;100.00
62942;BME280;49042;47.318;19.874;2024-03-06T06:44:02;100419.28;;;10.41;100.00
62942;BME280;49042;47.318;19.874;2024-03-06T06:47:04;100419.69;;;10.54;100.00
62942;BME280;49042;47.318;19.874;2024-03-06T06:50:06;100411.50;;;11.32;100.00
62942;BME280;49042;47.318;19.874;2024-03-06T06:53:10;100419.28;;;9.85;100.00
62942;BME280;49042;47.318;19.874;2024-03-06T06:56:13;100421.81;;;10.10;100.00
62942;BME280;49042;47.318;19.874;2024-03-06T06:59:15;100416.97;;;10.50;100.00
62942;BME280;49042;47.318;19.874;2024-03-06T07:02:17;100414.22;;;10.74;100.00
62942;BME280;49042;47.318;19.874;2024-03-06T07:05:19;100410.72;;;11.69;100.00
62942;BME280;49042;47.318;19.874;2024-03-06T07:08:21;100419.28;;;10.98;100.00
62942;BME280;49042;47.318;19.874;2024-03-06T07:11:22;100421.38;;;10.24;100.00
62942;BME280;49042;47.318;19.874;2024-03-06T07:14:25;100426.87;;;10.33;100.00
62942;BME280;49042;47.318;19.874;2024-03-06T07:17:27;100431.81;;;10.25;100.00
62942;BME280;49042;47.318;19.874;2024-03-06T07:20:29;100431.22;;;10.90;100.00
62942;BME280;49042;47.318;19.874;2024-03-06T07:23:33;100431.38;;;10.96;100.00
62942;BME280;49042;47.318;19.874;2024-03-06T07:26:35;100434.44;;;10.53;100.00
62942;BME280;49042;47.318;19.874;2024-03-06T07:29:37;100441.78;;;10.65;100.00
62942;BME280;49042;47.318;19.874;2024-03-06T07:32:39;100437.25;;;11.51;100.00
62942;BME280;49042;47.318;19.874;2024-03-06T07:35:42;100430.09;;;11.45;100.00
62942;BME280;49042;47.318;19.874;2024-03-06T07:38:43;100431.38;;;11.60;100.00
62942;BME280;49042;47.318;19.874;2024-03-06T07:41:46;100431.38;;;11.94;100.00
62942;BME280;49042;47.318;19.874;2024-03-06T07:44:47;100433.91;;;12.65;100.00
62942;BME280;49042;47.318;19.874;2024-03-06T07:47:49;100435.03;;;13.19;100.00
62942;BME280;49042;47.318;19.874;2024-03-06T07:50:51;100435.72;;;13.53;100.00
62942;BME280;49042;47.318;19.874;2024-03-06T07:53:53;100426.56;;;13.32;100.00
62942;BME280;49042;47.318;19.874;2024-03-06T07:56:55;100435.28;;;14.95;100.00
62942;BME280;49042;47.318;19.874;2024-03-06T07:59:57;100421.44;;;18.32;67.70
62942;BME280;49042;47.318;19.874;2024-03-06T08:02:59;100427.37;;;16.98;71.08
62942;BME280;49042;47.318;19.874;2024-03-06T08:06:02;100424.16;;;20.02;55.37
62942;BME280;49042;47.318;19.874;2024-03-06T08:09:05;100424.41;;;20.70;46.66
62942;BME280;49042;47.318;19.874;2024-03-06T08:12:09;100422.06;;;21.80;46.01
62942;BME280;49042;47.318;19.874;2024-03-06T08:15:12;100422.75;;;23.71;40.49
62942;BME280;49042;47.318;19.874;2024-03-06T08:18:14;100425.50;;;22.39;40.55
62942;BME280;49042;47.318;19.874;2024-03-06T08:21:16;100426.66;;;23.56;38.28
62942;BME280;49042;47.318;19.874;2024-03-06T08:24:18;100427.19;;;21.32;42.42
62942;BME280;49042;47.318;19.874;2024-03-06T08:27:20;100428.69;;;23.43;38.75
62942;BME280;49042;47.318;19.874;2024-03-06T08:30:22;100421.06;;;21.87;39.54
62942;BME280;49042;47.318;19.874;2024-03-06T08:33:23;100421.41;;;23.11;38.39
62942;BME280;49042;47.318;19.874;2024-03-06T08:36:26;100421.47;;;23.88;37.40
62942;BME280;49042;47.318;19.874;2024-03-06T08:39:28;100415.69;;;24.41;35.45
62942;BME280;49042;47.318;19.874;2024-03-06T08:42:30;100426.25;;;25.65;33.56
62942;BME280;49042;47.318;19.874;2024-03-06T08:45:32;100427.50;;;28.22;31.70
62942;BME280;49042;47.318;19.874;2024-03-06T08:48:33;100434.84;;;27.04;30.58
62942;BME280;49042;47.318;19.874;2024-03-06T08:51:35;100428.56;;;29.75;28.48
62942;BME280;49042;47.318;19.874;2024-03-06T08:54:37;100437.53;;;26.80;31.10
62942;BME280;49042;47.318;19.874;2024-03-06T08:57:39;100430.25;;;29.40;28.86
62942;BME280;49042;47.318;19.874;2024-03-06T09:00:41;100434.38;;;30.02;28.17
62942;BME280;49042;47.318;19.874;2024-03-06T09:03:43;100428.34;;;28.84;27.92
62942;BME280;49042;47.318;19.874;2024-03-06T09:06:44;100428.78;;;26.25;30.96
62942;BME280;49042;47.318;19.874;2024-03-06T09:09:46;100426.94;;;25.72;32.09
62942;BME280;49042;47.318;19.874;2024-03-06T09:12:48;100420.72;;;23.02;36.37
62942;BME280;49042;47.318;19.874;2024-03-06T09:15:50;100426.47;;;22.81;37.63
62942;BME280;49042;47.318;19.874;2024-03-06T09:18:52;100429.06;;;23.26;36.51
62942;BME280;49042;47.318;19.874;2024-03-06T09:21:54;100425.78;;;22.70;37.48
62942;BME280;49042;47.318;19.874;2024-03-06T09:24:56;100427.56;;;20.15;42.30
62942;BME280;49042;47.318;19.874;2024-03-06T09:27:58;100423.44;;;19.86;45.63
62942;BME280;49042;47.318;19.874;2024-03-06T09:31:01;100423.97;;;18.85;48.70
62942;BME280;49042;47.318;19.874;2024-03-06T09:34:03;100417.00;;;20.14;45.58
62942;BME280;49042;47.318;19.874;2024-03-06T09:37:04;100421.03;;;19.50;48.48
62942;BME280;49042;47.318;19.874;2024-03-06T09:40:07;100422.59;;;20.74;45.71
62942;BME280;49042;47.318;19.874;2024-03-06T09:43:09;100423.66;;;21.89;42.18
62942;BME280;49042;47.318;19.874;2024-03-06T09:46:11;100416.37;;;19.85;47.71
62942;BME280;49042;47.318;19.874;2024-03-06T09:49:18;100422.09;;;19.06;50.16
62942;BME280;49042;47.318;19.874;2024-03-06T09:52:20;100416.34;;;19.86;49.03
62942;BME280;49042;47.318;19.874;2024-03-06T09:55:23;100416.72;;;19.30;47.09
62942;BME280;49042;47.318;19.874;2024-03-06T09:58:27;100415.22;;;18.64;47.18
62942;BME280;49042;47.318;19.874;2024-03-06T10:01:31;100421.44;;;17.75;51.58
62942;BME280;49042;47.318;19.874;2024-03-06T10:04:34;100417.94;;;18.04;50.57
62942;BME280;49042;47.318;19.874;2024-03-06T10:07:36;100415.28;;;17.92;49.87
62942;BME280;49042;47.318;19.874;2024-03-06T10:10:38;100419.72;;;17.94;50.37
62942;BME280;49042;47.318;19.874;2024-03-06T10:13:40;100421.44;;;18.06;49.78
62942;BME280;49042;47.318;19.874;2024-03-06T10:16:58;100422.31;;;18.51;48.98
62942;BME280;49042;47.318;19.874;2024-03-06T10:20:00;100424.03;;;18.61;48.31
62942;BME280;49042;47.318;19.874;2024-03-06T10:23:06;100424.91;;;18.59;48.75
62942;BME280;49042;47.318;19.874;2024-03-06T10:26:10;100419.41;;;19.25;48.01
62942;BME280;49042;47.318;19.874;2024-03-06T10:29:18;100425.44;;;19.44;46.48
62942;BME280;49042;47.318;19.874;2024-03-06T10:32:20;100419.97;;;19.73;43.79
62942;BME280;49042;47.318;19.874;2024-03-06T10:35:23;100415.81;;;20.49;43.30
62942;BME280;49042;47.318;19.874;2024-03-06T10:38:27;100419.03;;;22.03;39.58
62942;BME280;49042;47.318;19.874;2024-03-06T10:41:36;100417.91;;;21.60;39.07
62942;BME280;49042;47.318;19.874;2024-03-06T10:44:44;100411.44;;;20.43;39.86
62942;BME280;49042;47.318;19.874;2024-03-06T10:47:50;100413.31;;;19.04;43.66
62942;BME280;49042;47.318;19.874;2024-03-06T10:50:53;100410.84;;;18.57;44.60
62942;BME280;49042;47.318;19.874;2024-03-06T10:53:57;100402.75;;;20.29;40.99
62942;BME280;49042;47.318;19.874;2024-03-06T10:57:01;100400.22;;;20.99;40.56
62942;BME280;49042;47.318;19.874;2024-03-06T11:00:03;100397.03;;;21.95;38.03
62942;BME280;49042;47.318;19.874;2024-03-06T11:03:07;100403.19;;;24.07;34.27
62942;BME280;49042;47.318;19.874;2024-03-06T11:06:10;100393.53;;;26.39;31.48
62942;BME280;49042;47.318;19.874;2024-03-06T11:09:12;100390.44;;;30.38;28.01
62942;BME280;49042;47.318;19.874;2024-03-06T11:12:33;100394.69;;;32.19;25.11
62942;BME280;49042;47.318;19.874;2024-03-06T11:15:35;100397.91;;;33.81;22.63
62942;BME280;49042;47.318;19.874;2024-03-06T11:21:46;100382.63;;;33.67;21.76
62942;BME280;49042;47.318;19.874;2024-03-06T11:24:49;100384.31;;;34.48;20.33
62942;BME280;49042;47.318;19.874;2024-03-06T11:28:06;100377.59;;;34.28;20.78
62942;BME280;49042;47.318;19.874;2024-03-06T11:31:09;100375.25;;;33.56;21.31
62942;BME280;49042;47.318;19.874;2024-03-06T11:34:15;100371.88;;;34.19;20.25
62942;BME280;49042;47.318;19.874;2024-03-06T11:37:20;100373.56;;;31.02;23.00
62942;BME280;49042;47.318;19.874;2024-03-06T11:40:23;100367.38;;;29.44;24.62
62942;BME280;49042;47.318;19.874;2024-03-06T11:43:29;100357.53;;;27.64;27.08
62942;BME280;49042;47.318;19.874;2024-03-06T11:46:45;100357.75;;;26.43;28.14
62942;BME280;49042;47.318;19.874;2024-03-06T11:49:48;100360.13;;;25.74;29.82
62942;BME280;49042;47.318;19.874;2024-03-06T11:52:51;100354.41;;;22.95;33.60
62942;BME280;49042;47.318;19.874;2024-03-06T11:55:53;100344.12;;;24.58;32.01
62942;BME280;49042;47.318;19.874;2024-03-06T11:58:55;100340.62;;;24.87;32.11
62942;BME280;49042;47.318;19.874;2024-03-06T12:01:58;100344.03;;;25.21;30.84
62942;BME280;49042;47.318;19.874;2024-03-06T12:05:04;100336.34;;;24.51;32.51
62942;BME280;49042;47.318;19.874;2024-03-06T12:08:06;100330.06;;;23.86;33.74
62942;BME280;49042;47.318;19.874;2024-03-06T12:11:09;100328.50;;;24.12;33.01
62942;BME280;49042;47.318;19.874;2024-03-06T12:14:19;100335.09;;;22.41;35.74
62942;BME280;49042;47.318;19.874;2024-03-06T12:17:20;100328.09;;;21.36;37.43
62942;BME280;49042;47.318;19.874;2024-03-06T12:20:24;100324.09;;;20.39;39.72
62942;BME280;49042;47.318;19.874;2024-03-06T12:23:27;100323.56;;;20.00;40.56
62942;BME280;49042;47.318;19.874;2024-03-06T12:26:29;100322.69;;;20.03;40.93
62942;BME280;49042;47.318;19.874;2024-03-06T12:29:34;100323.78;;;18.36;43.62
62942;BME280;49042;47.318;19.874;2024-03-06T12:32:36;100330.00;;;17.90;45.98
62942;BME280;49042;47.318;19.874;2024-03-06T12:35:38;100315.06;;;17.71;47.29
62942;BME280;49042;47.318;19.874;2024-03-06T12:38:40;100327.38;;;17.83;48.50
62942;BME280;49042;47.318;19.874;2024-03-06T12:41:42;100323.78;;;18.25;48.86
62942;BME280;49042;47.318;19.874;2024-03-06T12:44:43;100319.81;;;19.25;46.04
62942;BME280;49042;47.318;19.874;2024-03-06T12:47:47;100312.78;;;19.21;43.55
62942;BME280;49042;47.318;19.874;2024-03-06T12:50:51;100313.81;;;20.06;42.67
62942;BME280;49042;47.318;19.874;2024-03-06T12:53:55;100309.91;;;19.53;45.10
62942;BME280;49042;47.318;19.874;2024-03-06T12:56:57;100312.97;;;20.80;40.93
62942;BME280;49042;47.318;19.874;2024-03-06T12:59:59;100309.34;;;22.44;38.07
62942;BME280;49042;47.318;19.874;2024-03-06T13:03:01;100303.03;;;23.31;36.40
62942;BME280;49042;47.318;19.874;2024-03-06T13:06:04;100316.34;;;23.30;35.42
62942;BME280;49042;47.318;19.874;2024-03-06T13:09:06;100308.59;;;21.91;38.08
62942;BME280;49042;47.318;19.874;2024-03-06T13:12:08;100309.81;;;21.71;38.68
62942;BME280;49042;47.318;19.874;2024-03-06T13:15:10;100312.63;;;20.37;41.02
62942;BME280;49042;47.318;19.874;2024-03-06T13:18:12;100308.84;;;19.73;41.60
62942;BME280;49042;47.318;19.874;2024-03-06T13:21:13;100309.28;;;19.13;42.97
62942;BME280;49042;47.318;19.874;2024-03-06T13:24:15;100304.09;;;18.94;42.82
62942;BME280;49042;47.318;19.874;2024-03-06T13:27:17;100303.97;;;19.18;43.33
62942;BME280;49042;47.318;19.874;2024-03-06T13:30:19;100298.03;;;18.81;43.96
62942;BME280;49042;47.318;19.874;2024-03-06T13:33:20;100299.09;;;18.42;45.34
62942;BME280;49042;47.318;19.874;2024-03-06T13:36:22;100296.34;;;18.72;45.74
62942;BME280;49042;47.318;19.874;2024-03-06T13:39:24;100292.66;;;19.00;44.83
62942;BME280;49042;47.318;19.874;2024-03-06T13:42:27;100292.91;;;18.49;45.60
62942;BME280;49042;47.318;19.874;2024-03-06T13:45:29;100283.75;;;19.10;44.79
62942;BME280;49042;47.318;19.874;2024-03-06T13:48:31;100281.53;;;19.71;43.27
62942;BME280;49042;47.318;19.874;2024-03-06T13:51:33;100287.44;;;21.85;39.65
62942;BME280;49042;47.318;19.874;2024-03-06T13:54:35;100280.50;;;21.78;37.99
62942;BME280;49042;47.318;19.874;2024-03-06T13:57:37;100283.09;;;20.68;39.93
62942;BME280;49042;47.318;19.874;2024-03-06T14:00:39;100275.13;;;21.82;38.36
62942;BME280;49042;47.318;19.874;2024-03-06T14:03:41;100276.38;;;22.12;37.41
62942;BME280;49042;47.318;19.874;2024-03-06T14:06:43;100266.22;;;22.74;35.87
62942;BME280;49042;47.318;19.874;2024-03-06T14:09:44;100259.50;;;22.57;36.42
62942;BME280;49042;47.318;19.874;2024-03-06T14:12:46;100256.56;;;21.81;37.17
62942;BME280;49042;47.318;19.874;2024-03-06T14:15:48;100251.00;;;20.24;39.71
62942;BME280;49042;47.318;19.874;2024-03-06T14:18:50;100248.66;;;18.89;42.87
62942;BME280;49042;47.318;19.874;2024-03-06T14:21:52;100245.62;;;19.46;42.84
62942;BME280;49042;47.318;19.874;2024-03-06T14:24:54;100251.56;;;21.65;38.71
62942;BME280;49042;47.318;19.874;2024-03-06T14:27:56;100248.72;;;22.22;37.03
62942;BME280;49042;47.318;19.874;2024-03-06T14:30:58;100244.47;;;21.64;37.81
62942;BME280;49042;47.318;19.874;2024-03-06T14:34:00;100245.53;;;22.04;37.52
62942;BME280;49042;47.318;19.874;2024-03-06T14:37:06;100243.75;;;22.88;36.02
62942;BME280;49042;47.318;19.874;2024-03-06T14:40:09;100243.50;;;21.17;37.24
62942;BME280;49042;47.318;19.874;2024-03-06T14:43:11;100242.50;;;21.25;38.00
62942;BME280;49042;47.318;19.874;2024-03-06T14:46:14;100242.75;;;21.11;38.92
62942;BME280;49042;47.318;19.874;2024-03-06T14:49:15;100243.13;;;19.29;41.61
62942;BME280;49042;47.318;19.874;2024-03-06T14:52:17;100254.41;;;17.65;45.12
62942;BME280;49042;47.318;19.874;2024-03-06T14:55:19;100247.28;;;16.68;49.17
62942;BME280;49042;47.318;19.874;2024-03-06T14:58:21;100246.91;;;15.84;55.75
62942;BME280;49042;47.318;19.874;2024-03-06T15:01:24;100244.84;;;15.38;63.05
62942;BME280;49042;47.318;19.874;2024-03-06T15:04:27;100245.06;;;15.69;65.40
62942;BME280;49042;47.318;19.874;2024-03-06T15:07:28;100240.37;;;15.26;72.73
62942;BME280;49042;47.318;19.874;2024-03-06T15:10:30;100247.72;;;14.72;81.16
62942;BME280;49042;47.318;19.874;2024-03-06T15:13:35;100241.69;;;14.80;81.69
62942;BME280;49042;47.318;19.874;2024-03-06T15:16:37;100244.59;;;14.27;86.47
62942;BME280;49042;47.318;19.874;2024-03-06T15:19:40;100239.88;;;14.00;89.37
62942;BME280;49042;47.318;19.874;2024-03-06T15:22:45;100238.06;;;13.95;89.98
62942;BME280;49042;47.318;19.874;2024-03-06T15:25:47;100243.16;;;13.84;92.17
62942;BME280;49042;47.318;19.874;2024-03-06T15:28:48;100246.81;;;13.97;91.86
62942;BME280;49042;47.318;19.874;2024-03-06T15:31:50;100255.44;;;13.88;93.33
62942;BME280;49042;47.318;19.874;2024-03-06T15:34:52;100255.34;;;13.80;96.72
62942;BME280;49042;47.318;19.874;2024-03-06T15:37:57;100255.50;;;13.91;95.67
62942;BME280;49042;47.318;19.874;2024-03-06T15:40:59;100249.41;;;13.94;95.18
62942;BME280;49042;47.318;19.874;2024-03-06T15:44:01;100247.63;;;13.92;93.33
62942;BME280;49042;47.318;19.874;2024-03-06T15:47:03;100246.97;;;14.06;93.65
62942;BME280;49042;47.318;19.874;2024-03-06T15:50:11;100244.81;;;13.78;96.27